sensor_id;sensor_type;location;lat;lon;timestamp;P1;durP1;ratioP1;P2;durP2;ratioP2
27367;SDS011;14839;48.106;11.618;2023-06-22T04:01:44;6.63;;;3.13;;
27367;SDS011;14839;48.106;11.618;2023-06-22T04:04:10;4.10;;;3.00;;
27367;SDS011;14839;48.106;11.618;2023-06-22T04:06:35;6.50;;;3.27;;
27367;SDS011;14839;48.106;11.618;2023-06-22T04:09:01;5.17;;;2.97;;
27367;SDS011;14839;48.106;11.618;2023-06-22T04:11:27;4.53;;;2.93;;
27367;SDS011;14839;48.106;11.618;2023-06-22T04:13:53;6.43;;;3.10;;
27367;SDS011;14839;48.106;11.618;2023-06-22T04:16:18;6.07;;;3.20;;
27367;SDS011;14839;48.106;11.618;2023-06-22T04:18:44;4.07;;;3.13;;
27367;SDS011;14839;48.106;11.618;2023-06-22T04:21:10;7.00;;;3.20;;
27367;SDS011;14839;48.106;11.618;2023-06-22T04:23:36;4.97;;;3.30;;
27367;SDS011;14839;48.106;11.618;2023-06-22T04:26:01;7.97;;;4.20;;
27367;SDS011;14839;48.106;11.618;2023-06-22T04:28:27;5.03;;;3.93;;
27367;SDS011;14839;48.106;11.618;2023-06-22T04:30:52;8.17;;;4.13;;
27367;SDS011;14839;48.106;11.618;2023-06-22T04:33:22;8.13;;;3.93;;
27367;SDS011;14839;48.106;11.618;2023-06-22T04:35:47;6.77;;;4.27;;
27367;SDS011;14839;48.106;11.618;2023-06-22T04:38:13;8.83;;;4.00;;
27367;SDS011;14839;48.106;11.618;2023-06-22T04:40:39;5.70;;;3.10;;
27367;SDS011;14839;48.106;11.618;2023-06-22T04:43:05;7.67;;;3.30;;
27367;SDS011;14839;48.106;11.618;2023-06-22T04:45:31;8.03;;;4.13;;
27367;SDS011;14839;48.106;11.618;2023-06-22T04:47:57;6.40;;;4.35;;
27367;SDS011;14839;48.106;11.618;2023-06-22T04:50:23;6.25;;;3.58;;
27367;SDS011;14839;48.106;11.618;2023-06-22T04:52:49;5.10;;;3.40;;
27367;SDS011;14839;48.106;11.618;2023-06-22T04:55:15;6.30;;;3.78;;
27367;SDS011;14839;48.106;11.618;2023-06-22T04:57:43;7.95;;;4.05;;
27367;SDS011;14839;48.106;11.618;2023-06-22T05:00:14;5.55;;;3.63;;
27367;SDS011;14839;48.106;11.618;2023-06-22T05:02:42;10.50;;;3.75;;
27367;SDS011;14839;48.106;11.618;2023-06-22T05:05:09;10.95;;;4.43;;
27367;SDS011;14839;48.106;11.618;2023-06-22T05:07:38;8.15;;;4.57;;
27367;SDS011;14839;48.106;11.618;2023-06-22T05:10:09;7.93;;;4.05;;
27367;SDS011;14839;48.106;11.618;2023-06-22T05:12:38;5.75;;;3.63;;
27367;SDS011;14839;48.106;11.618;2023-06-22T05:15:05;6.80;;;4.25;;
27367;SDS011;14839;48.106;11.618;2023-06-22T05:17:34;5.90;;;3.70;;
27367;SDS011;14839;48.106;11.618;2023-06-22T05:20:00;6.82;;;4.13;;
27367;SDS011;14839;48.106;11.618;2023-06-22T05:22:27;8.25;;;4.13;;
27367;SDS011;14839;48.106;11.618;2023-06-22T05:24:53;9.02;;;3.83;;
27367;SDS011;14839;48.106;11.618;2023-06-22T05:27:18;10.52;;;5.28;;
27367;SDS011;14839;48.106;11.618;2023-06-22T05:29:44;8.70;;;3.92;;
27367;SDS011;14839;48.106;11.618;2023-06-22T05:32:09;6.30;;;3.85;;
27367;SDS011;14839;48.106;11.618;2023-06-22T05:34:35;7.15;;;4.38;;
27367;SDS011;14839;48.106;11.618;2023-06-22T05:37:01;7.07;;;4.03;;
27367;SDS011;14839;48.106;11.618;2023-06-22T05:39:27;5.90;;;4.30;;
27367;SDS011;14839;48.106;11.618;2023-06-22T05:41:53;9.55;;;4.63;;
27367;SDS011;14839;48.106;11.618;2023-06-22T05:44:18;6.63;;;3.70;;
27367;SDS011;14839;48.106;11.618;2023-06-22T05:46:44;10.50;;;4.50;;
27367;SDS011;14839;48.106;11.618;2023-06-22T05:49:11;5.88;;;4.15;;
27367;SDS011;14839;48.106;11.618;2023-06-22T05:51:38;8.98;;;5.13;;
27367;SDS011;14839;48.106;11.618;2023-06-22T05:54:04;6.57;;;4.20;;
27367;SDS011;14839;48.106;11.618;2023-06-22T05:56:29;7.93;;;4.18;;
27367;SDS011;14839;48.106;11.618;2023-06-22T05:58:55;11.98;;;5.00;;
27367;SDS011;14839;48.106;11.618;2023-06-22T06:01:21;10.30;;;4.55;;
27367;SDS011;14839;48.106;11.618;2023-06-22T06:03:46;5.07;;;4.15;;
27367;SDS011;14839;48.106;11.618;2023-06-22T06:06:14;5.18;;;4.00;;
27367;SDS011;14839;48.106;11.618;2023-06-22T06:08:41;8.07;;;4.18;;
27367;SDS011;14839;48.106;11.618;2023-06-22T06:11:07;7.25;;;4.53;;
27367;SDS011;14839;48.106;11.618;2023-06-22T06:13:32;5.57;;;4.18;;
27367;SDS011;14839;48.106;11.618;2023-06-22T06:15:58;6.10;;;4.70;;
27367;SDS011;14839;48.106;11.618;2023-06-22T06:18:24;8.07;;;4.28;;
27367;SDS011;14839;48.106;11.618;2023-06-22T06:20:51;7.53;;;4.60;;
27367;SDS011;14839;48.106;11.618;2023-06-22T06:23:16;7.57;;;4.57;;
27367;SDS011;14839;48.106;11.618;2023-06-22T06:25:42;6.20;;;4.47;;
27367;SDS011;14839;48.106;11.618;2023-06-22T06:28:08;11.73;;;4.60;;
27367;SDS011;14839;48.106;11.618;2023-06-22T06:30:33;8.75;;;4.75;;
27367;SDS011;14839;48.106;11.618;2023-06-22T06:33:02;9.98;;;4.85;;
27367;SDS011;14839;48.106;11.618;2023-06-22T06:35:28;8.93;;;4.50;;
27367;SDS011;14839;48.106;11.618;2023-06-22T06:37:53;7.03;;;4.38;;
27367;SDS011;14839;48.106;11.618;2023-06-22T06:40:19;7.57;;;4.80;;
27367;SDS011;14839;48.106;11.618;2023-06-22T06:42:47;9.45;;;4.90;;
27367;SDS011;14839;48.106;11.618;2023-06-22T06:45:20;10.05;;;4.95;;
27367;SDS011;14839;48.106;11.618;2023-06-22T06:47:48;8.68;;;4.82;;
27367;SDS011;14839;48.106;11.618;2023-06-22T06:50:14;7.80;;;4.65;;
27367;SDS011;14839;48.106;11.618;2023-06-22T06:52:40;8.65;;;4.80;;
27367;SDS011;14839;48.106;11.618;2023-06-22T06:55:07;7.35;;;4.90;;
27367;SDS011;14839;48.106;11.618;2023-06-22T06:57:36;7.20;;;4.65;;
27367;SDS011;14839;48.106;11.618;2023-06-22T07:00:05;7.10;;;4.60;;
27367;SDS011;14839;48.106;11.618;2023-06-22T07:02:36;8.45;;;4.82;;
27367;SDS011;14839;48.106;11.618;2023-06-22T07:05:02;6.57;;;4.68;;
27367;SDS011;14839;48.106;11.618;2023-06-22T07:07:29;8.95;;;4.57;;
27367;SDS011;14839;48.106;11.618;2023-06-22T07:09:55;9.77;;;5.32;;
27367;SDS011;14839;48.106;11.618;2023-06-22T07:12:20;9.18;;;5.38;;
27367;SDS011;14839;48.106;11.618;2023-06-22T07:14:46;12.10;;;5.25;;
27367;SDS011;14839;48.106;11.618;2023-06-22T07:17:11;6.85;;;5.00;;
27367;SDS011;14839;48.106;11.618;2023-06-22T07:19:37;10.68;;;4.78;;
27367;SDS011;14839;48.106;11.618;2023-06-22T07:22:03;11.55;;;5.40;;
27367;SDS011;14839;48.106;11.618;2023-06-22T07:24:29;6.47;;;4.88;;
27367;SDS011;14839;48.106;11.618;2023-06-22T07:26:55;9.75;;;5.13;;
27367;SDS011;14839;48.106;11.618;2023-06-22T07:29:24;13.60;;;4.85;;
27367;SDS011;14839;48.106;11.618;2023-06-22T07:31:50;7.07;;;5.00;;
27367;SDS011;14839;48.106;11.618;2023-06-22T07:34:21;7.25;;;4.45;;
27367;SDS011;14839;48.106;11.618;2023-06-22T07:36:47;11.85;;;5.28;;
27367;SDS011;14839;48.106;11.618;2023-06-22T07:39:12;11.70;;;5.38;;
27367;SDS011;14839;48.106;11.618;2023-06-22T07:41:38;11.05;;;4.97;;
27367;SDS011;14839;48.106;11.618;2023-06-22T07:44:05;8.32;;;4.93;;
27367;SDS011;14839;48.106;11.618;2023-06-22T07:46:31;10.15;;;4.72;;
27367;SDS011;14839;48.106;11.618;2023-06-22T07:48:57;12.32;;;4.97;;
27367;SDS011;14839;48.106;11.618;2023-06-22T07:51:24;9.05;;;4.90;;
27367;SDS011;14839;48.106;11.618;2023-06-22T07:53:50;8.02;;;4.55;;
27367;SDS011;14839;48.106;11.618;2023-06-22T07:56:15;8.38;;;4.53;;
27367;SDS011;14839;48.106;11.618;2023-06-22T07:58:45;10.00;;;5.35;;
27367;SDS011;14839;48.106;11.618;2023-06-22T08:01:11;8.18;;;4.82;;
27367;SDS011;14839;48.106;11.618;2023-06-22T08:03:37;9.35;;;5.05;;
27367;SDS011;14839;48.106;11.618;2023-06-22T08:06:04;8.52;;;5.03;;
27367;SDS011;14839;48.106;11.618;2023-06-22T08:08:30;11.38;;;5.10;;
27367;SDS011;14839;48.106;11.618;2023-06-22T08:10:56;9.23;;;4.90;;
27367;SDS011;14839;48.106;11.618;2023-06-22T08:13:22;11.88;;;4.85;;
27367;SDS011;14839;48.106;11.618;2023-06-22T08:15:47;8.77;;;4.47;;
27367;SDS011;14839;48.106;11.618;2023-06-22T08:18:14;5.75;;;4.95;;
27367;SDS011;14839;48.106;11.618;2023-06-22T08:20:40;15.38;;;4.75;;
27367;SDS011;14839;48.106;11.618;2023-06-22T08:23:05;12.10;;;4.82;;
27367;SDS011;14839;48.106;11.618;2023-06-22T08:25:32;8.18;;;5.15;;
27367;SDS011;14839;48.106;11.618;2023-06-22T08:27:59;12.32;;;4.82;;
27367;SDS011;14839;48.106;11.618;2023-06-22T08:30:24;6.68;;;4.45;;
27367;SDS011;14839;48.106;11.618;2023-06-22T08:32:50;10.10;;;4.78;;
27367;SDS011;14839;48.106;11.618;2023-06-22T08:35:16;9.13;;;4.65;;
27367;SDS011;14839;48.106;11.618;2023-06-22T08:37:41;8.93;;;4.70;;
27367;SDS011;14839;48.106;11.618;2023-06-22T08:40:08;6.07;;;4.38;;
27367;SDS011;14839;48.106;11.618;2023-06-22T08:42:40;14.77;;;5.32;;
27367;SDS011;14839;48.106;11.618;2023-06-22T08:45:06;11.07;;;5.20;;
27367;SDS011;14839;48.106;11.618;2023-06-22T08:47:32;6.78;;;4.45;;
27367;SDS011;14839;48.106;11.618;2023-06-22T08:49:58;8.27;;;4.82;;
27367;SDS011;14839;48.106;11.618;2023-06-22T08:52:24;5.95;;;4.25;;
27367;SDS011;14839;48.106;11.618;2023-06-22T08:54:49;9.30;;;4.90;;
27367;SDS011;14839;48.106;11.618;2023-06-22T08:57:16;11.65;;;4.70;;
27367;SDS011;14839;48.106;11.618;2023-06-22T08:59:42;10.85;;;4.47;;
27367;SDS011;14839;48.106;11.618;2023-06-22T09:02:07;11.23;;;4.88;;
27367;SDS011;14839;48.106;11.618;2023-06-22T09:04:33;13.00;;;5.22;;
27367;SDS011;14839;48.106;11.618;2023-06-22T09:07:00;7.88;;;4.90;;
27367;SDS011;14839;48.106;11.618;2023-06-22T09:09:26;11.85;;;4.63;;
27367;SDS011;14839;48.106;11.618;2023-06-22T09:11:52;11.00;;;4.28;;
27367;SDS011;14839;48.106;11.618;2023-06-22T09:14:17;8.63;;;4.90;;
27367;SDS011;14839;48.106;11.618;2023-06-22T09:16:43;7.20;;;4.95;;
27367;SDS011;14839;48.106;11.618;2023-06-22T09:19:09;10.40;;;4.05;;
27367;SDS011;14839;48.106;11.618;2023-06-22T09:21:34;8.93;;;4.97;;
27367;SDS011;14839;48.106;11.618;2023-06-22T09:24:01;11.80;;;5.15;;
27367;SDS011;14839;48.106;11.618;2023-06-22T09:26:27;10.77;;;4.88;;
27367;SDS011;14839;48.106;11.618;2023-06-22T09:28:52;9.82;;;4.63;;
27367;SDS011;14839;48.106;11.618;2023-06-22T09:31:18;13.55;;;4.55;;
27367;SDS011;14839;48.106;11.618;2023-06-22T09:33:50;12.05;;;4.00;;
27367;SDS011;14839;48.106;11.618;2023-06-22T09:36:16;6.63;;;4.68;;
27367;SDS011;14839;48.106;11.618;2023-06-22T09:38:42;8.77;;;4.82;;
27367;SDS011;14839;48.106;11.618;2023-06-22T09:41:07;9.55;;;4.18;;
27367;SDS011;14839;48.106;11.618;2023-06-22T09:43:33;10.00;;;5.05;;
27367;SDS011;14839;48.106;11.618;2023-06-22T09:46:01;7.85;;;4.18;;
27367;SDS011;14839;48.106;11.618;2023-06-22T09:48:27;7.47;;;4.40;;
27367;SDS011;14839;48.106;11.618;2023-06-22T09:50:55;14.07;;;5.18;;
27367;SDS011;14839;48.106;11.618;2023-06-22T09:53:20;10.07;;;4.22;;
27367;SDS011;14839;48.106;11.618;2023-06-22T09:55:46;9.00;;;4.53;;
27367;SDS011;14839;48.106;11.618;2023-06-22T09:58:12;7.13;;;4.25;;
27367;SDS011;14839;48.106;11.618;2023-06-22T10:00:37;7.57;;;4.45;;
27367;SDS011;14839;48.106;11.618;2023-06-22T10:03:03;7.53;;;4.57;;
27367;SDS011;14839;48.106;11.618;2023-06-22T10:05:28;15.43;;;4.55;;
27367;SDS011;14839;48.106;11.618;2023-06-22T10:07:54;9.43;;;4.78;;
27367;SDS011;14839;48.106;11.618;2023-06-22T10:10:19;13.32;;;4.53;;
27367;SDS011;14839;48.106;11.618;2023-06-22T10:12:46;6.22;;;4.55;;
27367;SDS011;14839;48.106;11.618;2023-06-22T10:15:13;13.43;;;4.68;;
27367;SDS011;14839;48.106;11.618;2023-06-22T10:17:39;12.48;;;5.10;;
27367;SDS011;14839;48.106;11.618;2023-06-22T10:20:05;10.35;;;4.55;;
27367;SDS011;14839;48.106;11.618;2023-06-22T10:22:38;7.63;;;4.32;;
27367;SDS011;14839;48.106;11.618;2023-06-22T10:25:07;11.10;;;4.38;;
27367;SDS011;14839;48.106;11.618;2023-06-22T10:27:33;10.95;;;5.22;;
27367;SDS011;14839;48.106;11.618;2023-06-22T10:29:59;7.40;;;4.53;;
27367;SDS011;14839;48.106;11.618;2023-06-22T10:32:25;11.32;;;4.60;;
27367;SDS011;14839;48.106;11.618;2023-06-22T10:34:50;11.20;;;4.40;;
27367;SDS011;14839;48.106;11.618;2023-06-22T10:37:16;12.57;;;4.80;;
27367;SDS011;14839;48.106;11.618;2023-06-22T10:39:41;11.23;;;4.95;;
27367;SDS011;14839;48.106;11.618;2023-06-22T10:42:07;8.77;;;4.22;;
27367;SDS011;14839;48.106;11.618;2023-06-22T10:44:33;11.63;;;4.57;;
27367;SDS011;14839;48.106;11.618;2023-06-22T10:46:58;11.60;;;4.70;;
27367;SDS011;14839;48.106;11.618;2023-06-22T10:49:24;11.25;;;4.55;;
27367;SDS011;14839;48.106;11.618;2023-06-22T10:51:52;14.15;;;4.63;;
27367;SDS011;14839;48.106;11.618;2023-06-22T10:54:18;7.35;;;3.92;;
27367;SDS011;14839;48.106;11.618;2023-06-22T10:56:44;7.82;;;4.68;;
27367;SDS011;14839;48.106;11.618;2023-06-22T10:59:10;8.65;;;4.45;;
27367;SDS011;14839;48.106;11.618;2023-06-22T11:01:35;10.75;;;4.60;;
27367;SDS011;14839;48.106;11.618;2023-06-22T11:04:02;8.63;;;3.97;;
27367;SDS011;14839;48.106;11.618;2023-06-22T11:06:28;9.50;;;4.32;;
27367;SDS011;14839;48.106;11.618;2023-06-22T11:08:54;16.48;;;5.10;;
27367;SDS011;14839;48.106;11.618;2023-06-22T11:11:19;11.02;;;4.60;;
27367;SDS011;14839;48.106;11.618;2023-06-22T11:13:48;10.68;;;4.72;;
27367;SDS011;14839;48.106;11.618;2023-06-22T11:16:13;15.23;;;4.50;;
27367;SDS011;14839;48.106;11.618;2023-06-22T11:18:39;6.15;;;4.47;;
27367;SDS011;14839;48.106;11.618;2023-06-22T11:21:04;8.85;;;3.85;;
27367;SDS011;14839;48.106;11.618;2023-06-22T11:23:30;10.40;;;3.58;;
27367;SDS011;14839;48.106;11.618;2023-06-22T11:25:55;8.73;;;3.95;;
27367;SDS011;14839;48.106;11.618;2023-06-22T11:28:21;8.10;;;4.63;;
27367;SDS011;14839;48.106;11.618;2023-06-22T11:30:47;11.70;;;4.43;;
27367;SDS011;14839;48.106;11.618;2023-06-22T11:33:12;7.90;;;4.50;;
27367;SDS011;14839;48.106;11.618;2023-06-22T11:35:38;8.95;;;4.60;;
27367;SDS011;14839;48.106;11.618;2023-06-22T11:38:03;9.80;;;4.57;;
27367;SDS011;14839;48.106;11.618;2023-06-22T11:40:30;9.57;;;5.35;;
27367;SDS011;14839;48.106;11.618;2023-06-22T11:42:56;7.72;;;4.30;;
27367;SDS011;14839;48.106;11.618;2023-06-22T11:45:21;9.45;;;4.40;;
27367;SDS011;14839;48.106;11.618;2023-06-22T11:47:47;9.70;;;5.32;;
27367;SDS011;14839;48.106;11.618;2023-06-22T11:50:13;9.48;;;4.80;;
27367;SDS011;14839;48.106;11.618;2023-06-22T11:52:39;8.95;;;4.68;;
27367;SDS011;14839;48.106;11.618;2023-06-22T11:55:05;6.75;;;4.82;;
27367;SDS011;14839;48.106;11.618;2023-06-22T11:57:35;10.07;;;4.88;;
27367;SDS011;14839;48.106;11.618;2023-06-22T12:00:02;9.07;;;4.10;;
27367;SDS011;14839;48.106;11.618;2023-06-22T12:02:31;9.55;;;5.20;;
27367;SDS011;14839;48.106;11.618;2023-06-22T12:04:57;10.80;;;4.55;;
27367;SDS011;14839;48.106;11.618;2023-06-22T12:07:23;9.82;;;5.15;;
27367;SDS011;14839;48.106;11.618;2023-06-22T12:09:48;11.00;;;4.72;;
27367;SDS011;14839;48.106;11.618;2023-06-22T12:12:14;7.93;;;4.93;;
27367;SDS011;14839;48.106;11.618;2023-06-22T12:14:40;11.48;;;5.07;;
27367;SDS011;14839;48.106;11.618;2023-06-22T12:17:05;12.18;;;5.13;;
27367;SDS011;14839;48.106;11.618;2023-06-22T12:19:31;7.53;;;4.88;;
27367;SDS011;14839;48.106;11.618;2023-06-22T12:21:57;12.02;;;4.93;;
27367;SDS011;14839;48.106;11.618;2023-06-22T12:24:22;13.10;;;4.85;;
27367;SDS011;14839;48.106;11.618;2023-06-22T12:26:48;7.93;;;4.75;;
27367;SDS011;14839;48.106;11.618;2023-06-22T12:29:14;14.02;;;4.72;;
27367;SDS011;14839;48.106;11.618;2023-06-22T12:31:39;12.48;;;4.72;;
27367;SDS011;14839;48.106;11.618;2023-06-22T12:34:06;11.73;;;5.20;;
27367;SDS011;14839;48.106;11.618;2023-06-22T12:36:32;11.07;;;4.50;;
27367;SDS011;14839;48.106;11.618;2023-06-22T12:38:57;6.57;;;4.32;;
27367;SDS011;14839;48.106;11.618;2023-06-22T12:41:23;12.90;;;5.32;;
27367;SDS011;14839;48.106;11.618;2023-06-22T12:43:48;16.45;;;5.13;;
27367;SDS011;14839;48.106;11.618;2023-06-22T12:46:14;9.50;;;4.53;;
27367;SDS011;14839;48.106;11.618;2023-06-22T12:48:39;11.93;;;4.35;;
27367;SDS011;14839;48.106;11.618;2023-06-22T12:51:07;10.38;;;5.03;;
27367;SDS011;14839;48.106;11.618;2023-06-22T12:53:34;10.63;;;4.68;;
27367;SDS011;14839;48.106;11.618;2023-06-22T12:56:00;11.82;;;4.80;;
27367;SDS011;14839;48.106;11.618;2023-06-22T12:58:26;8.00;;;4.50;;
27367;SDS011;14839;48.106;11.618;2023-06-22T13:00:52;13.43;;;4.70;;
27367;SDS011;14839;48.106;11.618;2023-06-22T13:03:17;8.55;;;4.18;;
27367;SDS011;14839;48.106;11.618;2023-06-22T13:05:43;8.65;;;4.30;;
27367;SDS011;14839;48.106;11.618;2023-06-22T13:08:08;9.10;;;4.07;;
27367;SDS011;14839;48.106;11.618;2023-06-22T13:10:35;8.95;;;4.25;;
27367;SDS011;14839;48.106;11.618;2023-06-22T13:13:01;11.23;;;5.18;;
27367;SDS011;14839;48.106;11.618;2023-06-22T13:15:27;7.88;;;4.32;;
27367;SDS011;14839;48.106;11.618;2023-06-22T13:17:53;12.68;;;4.95;;
27367;SDS011;14839;48.106;11.618;2023-06-22T13:20:19;7.93;;;4.10;;
27367;SDS011;14839;48.106;11.618;2023-06-22T13:22:44;10.15;;;4.88;;
27367;SDS011;14839;48.106;11.618;2023-06-22T13:25:10;11.35;;;5.07;;
27367;SDS011;14839;48.106;11.618;2023-06-22T13:27:40;9.00;;;4.57;;
27367;SDS011;14839;48.106;11.618;2023-06-22T13:30:06;7.65;;;3.85;;
27367;SDS011;14839;48.106;11.618;2023-06-22T13:32:33;14.25;;;4.88;;
27367;SDS011;14839;48.106;11.618;2023-06-22T13:35:01;8.00;;;4.18;;
27367;SDS011;14839;48.106;11.618;2023-06-22T13:37:27;15.57;;;4.47;;
27367;SDS011;14839;48.106;11.618;2023-06-22T13:39:52;8.68;;;4.05;;
27367;SDS011;14839;48.106;11.618;2023-06-22T13:42:18;12.05;;;4.55;;
27367;SDS011;14839;48.106;11.618;2023-06-22T13:44:43;11.90;;;4.32;;
27367;SDS011;14839;48.106;11.618;2023-06-22T13:47:09;8.07;;;4.15;;
27367;SDS011;14839;48.106;11.618;2023-06-22T13:49:35;7.22;;;4.63;;
27367;SDS011;14839;48.106;11.618;2023-06-22T13:52:00;8.95;;;4.60;;
27367;SDS011;14839;48.106;11.618;2023-06-22T13:54:28;9.70;;;4.47;;
27367;SDS011;14839;48.106;11.618;2023-06-22T13:56:53;7.47;;;4.10;;
27367;SDS011;14839;48.106;11.618;2023-06-22T13:59:19;15.35;;;4.22;;
27367;SDS011;14839;48.106;11.618;2023-06-22T14:01:45;9.43;;;4.20;;
27367;SDS011;14839;48.106;11.618;2023-06-22T14:04:11;5.20;;;3.72;;
27367;SDS011;14839;48.106;11.618;2023-06-22T14:06:37;10.60;;;4.88;;
27367;SDS011;14839;48.106;11.618;2023-06-22T14:09:03;9.73;;;4.10;;
27367;SDS011;14839;48.106;11.618;2023-06-22T14:11:28;9.27;;;4.18;;
27367;SDS011;14839;48.106;11.618;2023-06-22T14:13:54;14.23;;;4.43;;
27367;SDS011;14839;48.106;11.618;2023-06-22T14:16:19;8.07;;;3.97;;
27367;SDS011;14839;48.106;11.618;2023-06-22T14:18:45;8.05;;;4.63;;
27367;SDS011;14839;48.106;11.618;2023-06-22T14:21:10;9.73;;;3.80;;
27367;SDS011;14839;48.106;11.618;2023-06-22T14:23:36;7.43;;;4.10;;
27367;SDS011;14839;48.106;11.618;2023-06-22T14:26:03;7.75;;;3.90;;
27367;SDS011;14839;48.106;11.618;2023-06-22T14:28:28;12.70;;;4.40;;
27367;SDS011;14839;48.106;11.618;2023-06-22T14:30:54;9.30;;;4.20;;
27367;SDS011;14839;48.106;11.618;2023-06-22T14:33:21;9.80;;;4.20;;
27367;SDS011;14839;48.106;11.618;2023-06-22T14:35:46;10.90;;;4.50;;
27367;SDS011;14839;48.106;11.618;2023-06-22T14:38:12;8.00;;;3.72;;
27367;SDS011;14839;48.106;11.618;2023-06-22T14:40:38;11.23;;;3.70;;
27367;SDS011;14839;48.106;11.618;2023-06-22T14:43:03;6.03;;;3.85;;
27367;SDS011;14839;48.106;11.618;2023-06-22T14:45:29;11.30;;;3.55;;
27367;SDS011;14839;48.106;11.618;2023-06-22T14:47:54;13.38;;;4.75;;
27367;SDS011;14839;48.106;11.618;2023-06-22T14:50:20;13.52;;;4.00;;
27367;SDS011;14839;48.106;11.618;2023-06-22T14:52:45;7.22;;;3.58;;
27367;SDS011;14839;48.106;11.618;2023-06-22T14:55:11;8.68;;;3.95;;
27367;SDS011;14839;48.106;11.618;2023-06-22T14:57:36;9.57;;;4.32;;
27367;SDS011;14839;48.106;11.618;2023-06-22T15:00:02;5.18;;;3.83;;
27367;SDS011;14839;48.106;11.618;2023-06-22T15:02:28;14.95;;;4.45;;
27367;SDS011;14839;48.106;11.618;2023-06-22T15:04:54;8.10;;;4.10;;
27367;SDS011;14839;48.106;11.618;2023-06-22T15:07:19;11.07;;;4.03;;
27367;SDS011;14839;48.106;11.618;2023-06-22T15:09:45;12.63;;;4.70;;
27367;SDS011;14839;48.106;11.618;2023-06-22T15:12:11;8.45;;;3.63;;
27367;SDS011;14839;48.106;11.618;2023-06-22T15:14:40;11.30;;;3.58;;
27367;SDS011;14839;48.106;11.618;2023-06-22T15:17:06;7.45;;;3.88;;
27367;SDS011;14839;48.106;11.618;2023-06-22T15:19:36;8.05;;;3.75;;
27367;SDS011;14839;48.106;11.618;2023-06-22T15:22:04;6.30;;;3.75;;
27367;SDS011;14839;48.106;11.618;2023-06-22T15:24:31;11.40;;;4.32;;
27367;SDS011;14839;48.106;11.618;2023-06-22T15:26:57;7.65;;;3.90;;
27367;SDS011;14839;48.106;11.618;2023-06-22T15:29:23;8.80;;;3.63;;
27367;SDS011;14839;48.106;11.618;2023-06-22T15:31:48;5.88;;;3.55;;
27367;SDS011;14839;48.106;11.618;2023-06-22T15:34:14;7.47;;;3.58;;
27367;SDS011;14839;48.106;11.618;2023-06-22T15:36:39;4.72;;;3.45;;
27367;SDS011;14839;48.106;11.618;2023-06-22T15:39:05;13.10;;;3.42;;
27367;SDS011;14839;48.106;11.618;2023-06-22T15:41:30;10.60;;;4.18;;
27367;SDS011;14839;48.106;11.618;2023-06-22T15:43:56;11.40;;;3.75;;
27367;SDS011;14839;48.106;11.618;2023-06-22T15:46:22;14.50;;;3.67;;
27367;SDS011;14839;48.106;11.618;2023-06-22T15:48:47;9.35;;;4.45;;
27367;SDS011;14839;48.106;11.618;2023-06-22T15:51:13;7.88;;;3.67;;
27367;SDS011;14839;48.106;11.618;2023-06-22T15:53:40;7.60;;;3.92;;
27367;SDS011;14839;48.106;11.618;2023-06-22T15:56:05;7.55;;;3.60;;
27367;SDS011;14839;48.106;11.618;2023-06-22T15:58:34;14.60;;;3.75;;
27367;SDS011;14839;48.106;11.618;2023-06-22T16:01:03;8.10;;;3.83;;
27367;SDS011;14839;48.106;11.618;2023-06-22T16:03:30;11.05;;;4.15;;
27367;SDS011;14839;48.106;11.618;2023-06-22T16:05:56;9.57;;;3.25;;
27367;SDS011;14839;48.106;11.618;2023-06-22T16:08:31;6.78;;;3.75;;
27367;SDS011;14839;48.106;11.618;2023-06-22T16:11:20;13.75;;;3.10;;
27367;SDS011;14839;48.106;11.618;2023-06-22T16:13:45;10.88;;;3.60;;
27367;SDS011;14839;48.106;11.618;2023-06-22T16:16:11;13.85;;;3.85;;
27367;SDS011;14839;48.106;11.618;2023-06-22T16:18:37;6.60;;;2.97;;
27367;SDS011;14839;48.106;11.618;2023-06-22T16:21:03;7.40;;;3.10;;
27367;SDS011;14839;48.106;11.618;2023-06-22T16:23:29;7.63;;;3.13;;
27367;SDS011;14839;48.106;11.618;2023-06-22T16:25:55;7.72;;;3.30;;
27367;SDS011;14839;48.106;11.618;2023-06-22T16:28:21;9.95;;;3.85;;
27367;SDS011;14839;48.106;11.618;2023-06-22T16:30:47;6.78;;;3.45;;
27367;SDS011;14839;48.106;11.618;2023-06-22T16:33:13;9.48;;;3.10;;
27367;SDS011;14839;48.106;11.618;2023-06-22T16:35:38;12.05;;;3.67;;
27367;SDS011;14839;48.106;11.618;2023-06-22T16:38:05;18.83;;;3.78;;
27367;SDS011;14839;48.106;11.618;2023-06-22T16:40:32;10.98;;;3.10;;
27367;SDS011;14839;48.106;11.618;2023-06-22T16:42:57;12.25;;;3.42;;
27367;SDS011;14839;48.106;11.618;2023-06-22T16:45:23;14.35;;;4.63;;
27367;SDS011;14839;48.106;11.618;2023-06-22T16:47:50;6.55;;;3.55;;
27367;SDS011;14839;48.106;11.618;2023-06-22T16:50:16;9.65;;;4.10;;
27367;SDS011;14839;48.106;11.618;2023-06-22T16:52:42;20.48;;;4.88;;
27367;SDS011;14839;48.106;11.618;2023-06-22T16:55:10;20.85;;;4.18;;
27367;SDS011;14839;48.106;11.618;2023-06-22T16:57:36;13.68;;;3.97;;
27367;SDS011;14839;48.106;11.618;2023-06-22T17:00:02;9.20;;;4.38;;
27367;SDS011;14839;48.106;11.618;2023-06-22T17:02:33;8.07;;;4.50;;
27367;SDS011;14839;48.106;11.618;2023-06-22T17:05:05;8.02;;;4.35;;
27367;SDS011;14839;48.106;11.618;2023-06-22T17:07:32;11.40;;;5.15;;
27367;SDS011;14839;48.106;11.618;2023-06-22T17:09:58;10.38;;;5.35;;
27367;SDS011;14839;48.106;11.618;2023-06-22T17:12:24;21.75;;;5.72;;
27367;SDS011;14839;48.106;11.618;2023-06-22T17:14:51;17.23;;;4.72;;
27367;SDS011;14839;48.106;11.618;2023-06-22T17:17:17;17.20;;;4.60;;
27367;SDS011;14839;48.106;11.618;2023-06-22T17:19:43;9.20;;;4.35;;
27367;SDS011;14839;48.106;11.618;2023-06-22T17:22:10;7.82;;;4.60;;
27367;SDS011;14839;48.106;11.618;2023-06-22T17:24:36;10.13;;;4.72;;
27367;SDS011;14839;48.106;11.618;2023-06-22T17:27:02;12.20;;;4.53;;
27367;SDS011;14839;48.106;11.618;2023-06-22T17:29:29;12.90;;;4.43;;
27367;SDS011;14839;48.106;11.618;2023-06-22T17:31:56;11.93;;;4.60;;
27367;SDS011;14839;48.106;11.618;2023-06-22T17:34:22;8.38;;;4.18;;
27367;SDS011;14839;48.106;11.618;2023-06-22T17:36:53;8.65;;;4.38;;
27367;SDS011;14839;48.106;11.618;2023-06-22T17:39:20;8.90;;;4.53;;
27367;SDS011;14839;48.106;11.618;2023-06-22T17:41:47;8.32;;;4.45;;
27367;SDS011;14839;48.106;11.618;2023-06-22T17:44:25;7.88;;;4.22;;
27367;SDS011;14839;48.106;11.618;2023-06-22T17:46:54;8.00;;;4.25;;
27367;SDS011;14839;48.106;11.618;2023-06-22T17:49:21;9.68;;;4.55;;
27367;SDS011;14839;48.106;11.618;2023-06-22T17:51:51;10.52;;;4.75;;
27367;SDS011;14839;48.106;11.618;2023-06-22T17:54:18;11.43;;;5.15;;
27367;SDS011;14839;48.106;11.618;2023-06-22T17:56:47;14.20;;;4.90;;
27367;SDS011;14839;48.106;11.618;2023-06-22T17:59:15;8.75;;;5.03;;
27367;SDS011;14839;48.106;11.618;2023-06-22T18:01:42;9.95;;;4.88;;
27367;SDS011;14839;48.106;11.618;2023-06-22T18:04:10;8.80;;;4.50;;
27367;SDS011;14839;48.106;11.618;2023-06-22T18:06:38;11.73;;;5.63;;
27367;SDS011;14839;48.106;11.618;2023-06-22T18:09:08;10.02;;;4.82;;
27367;SDS011;14839;48.106;11.618;2023-06-22T18:11:37;11.00;;;5.10;;
27367;SDS011;14839;48.106;11.618;2023-06-22T18:14:09;12.77;;;5.20;;
27367;SDS011;14839;48.106;11.618;2023-06-22T18:16:35;8.48;;;4.93;;
27367;SDS011;14839;48.106;11.618;2023-06-22T18:19:02;10.05;;;4.43;;
27367;SDS011;14839;48.106;11.618;2023-06-22T18:21:28;10.73;;;4.93;;
27367;SDS011;14839;48.106;11.618;2023-06-22T18:23:55;9.85;;;4.35;;